Time;durP1;ratioP1;P1;durP2;ratioP2;P2;SDS_P1;SDS_P2;PMS_P1;PMS_P2;Temp;Humidity;BMP_temperature;BMP_pressure;BME280_temperature;BME280_humidity;BME280_pressure;Samples;Min_cycle;Max_cycle;Signal;HPM_P1;HPM_P2
2024/03/05 00:01:39;;;;;;;138.50;52.63;;;8.70;99.90;;;;;;5093397;28;20104;-69
2024/03/05 00:04:05;;;;;;;159.40;58.08;;;8.70;99.90;;;;;;5093564;28;20468;-69
2024/03/05 00:06:35;;;;;;;143.00;54.42;;;8.80;99.90;;;;;;5093941;28;20068;-69
2024/03/05 00:09:01;;;;;;;156.38;55.72;;;8.90;99.90;;;;;;5093581;28;20039;-69
2024/03/05 00:11:27;;;;;;;164.98;59.35;;;8.80;99.90;;;;;;5093308;28;20040;-69
2024/03/05 00:13:53;;;;;;;153.93;60.28;;;8.90;99.90;;;;;;5093666;28;20040;-69
2024/03/05 00:16:18;;;;;;;177.50;61.05;;;8.80;99.90;;;;;;5093521;28;20411;-69
2024/03/05 00:18:47;;;;;;;171.70;57.47;;;8.70;99.90;;;;;;5093115;28;20051;-68
2024/03/05 00:21:13;;;;;;;163.52;63.53;;;8.70;99.90;;;;;;5091624;28;20040;-69
2024/03/05 00:23:39;;;;;;;147.25;58.33;;;8.80;99.90;;;;;;5093433;28;20039;-69
2024/03/05 00:26:05;;;;;;;156.93;57.95;;;8.80;99.90;;;;;;5093391;28;20085;-69
2024/03/05 00:28:34;;;;;;;165.13;59.03;;;8.80;99.90;;;;;;5093059;28;20048;-69
2024/03/05 00:31:00;;;;;;;173.35;59.60;;;8.80;99.90;;;;;;5092756;28;20032;-69
2024/03/05 00:33:26;;;;;;;162.02;62.25;;;8.80;99.90;;;;;;5093143;28;20063;-69
2024/03/05 00:35:52;;;;;;;163.25;59.90;;;8.70;99.90;;;;;;5091945;28;20036;-69
2024/03/05 00:38:18;;;;;;;165.18;61.15;;;8.80;99.90;;;;;;5093030;28;20097;-69
2024/03/05 00:40:44;;;;;;;174.43;62.50;;;8.80;99.90;;;;;;5093100;28;20058;-69
2024/03/05 00:43:10;;;;;;;183.65;64.68;;;8.90;99.90;;;;;;5092419;28;20491;-69
2024/03/05 00:45:35;;;;;;;197.13;67.03;;;8.80;99.90;;;;;;5091684;28;20085;-69
2024/03/05 00:48:02;;;;;;;174.77;63.85;;;8.70;99.90;;;;;;5092793;28;20040;-69
2024/03/05 00:50:27;;;;;;;181.98;63.88;;;8.90;99.90;;;;;;5091470;28;20032;-69
2024/03/05 00:52:53;;;;;;;175.02;61.35;;;8.90;99.90;;;;;;5092389;28;20039;-69
2024/03/05 00:55:19;;;;;;;178.45;62.47;;;8.80;99.90;;;;;;5092848;28;20077;-69
2024/03/05 00:57:45;;;;;;;195.25;64.07;;;8.90;99.90;;;;;;5092793;28;20036;-69
2024/03/05 01:00:13;;;;;;;166.68;64.57;;;8.90;99.90;;;;;;5092424;28;20051;-68
2024/03/05 01:02:41;;;;;;;160.73;61.20;;;8.90;99.90;;;;;;5092051;28;20097;-69
2024/03/05 01:05:09;;;;;;;164.75;61.70;;;8.90;99.90;;;;;;5092758;28;20024;-69
2024/03/05 01:07:36;;;;;;;174.98;63.75;;;8.80;99.90;;;;;;5091251;28;20028;-68
2024/03/05 01:10:04;;;;;;;179.63;62.10;;;8.80;99.90;;;;;;5092249;28;20078;-69
2024/03/05 01:12:30;;;;;;;206.10;69.82;;;8.90;99.90;;;;;;5092058;28;20034;-69
2024/03/05 01:14:55;;;;;;;174.05;67.57;;;8.90;99.90;;;;;;5092256;28;20036;-68
2024/03/05 01:17:21;;;;;;;181.18;66.63;;;8.80;99.90;;;;;;5092545;28;20071;-69
2024/03/05 01:19:47;;;;;;;200.93;68.57;;;8.80;99.90;;;;;;5092213;28;20052;-69
2024/03/05 01:22:12;;;;;;;205.55;68.57;;;8.70;99.90;;;;;;5091998;28;20048;-69
2024/03/05 01:24:38;;;;;;;211.07;71.55;;;8.90;99.90;;;;;;5092407;28;20408;-68
2024/03/05 01:27:04;;;;;;;192.50;67.47;;;8.80;99.90;;;;;;5092223;28;20036;-69
2024/03/05 01:29:30;;;;;;;191.52;66.85;;;8.80;99.90;;;;;;5091732;28;20051;-68
2024/03/05 01:31:58;;;;;;;224.13;72.35;;;8.90;99.90;;;;;;5091877;28;20126;-69
2024/03/05 01:34:24;;;;;;;184.38;67.30;;;8.80;99.90;;;;;;5092302;28;20044;-69
2024/03/05 01:36:50;;;;;;;202.60;68.43;;;8.80;99.90;;;;;;5090715;28;20047;-69
2024/03/05 01:39:17;;;;;;;192.57;65.78;;;8.80;99.90;;;;;;5091738;28;20089;-69
2024/03/05 01:41:44;;;;;;;184.35;64.90;;;8.80;99.90;;;;;;5091623;28;20054;-69
2024/03/05 01:44:13;;;;;;;191.23;66.20;;;8.80;99.90;;;;;;5091739;28;20079;-69
2024/03/05 01:46:39;;;;;;;188.30;64.10;;;9.00;99.90;;;;;;5092124;28;20036;-69
2024/03/05 01:49:07;;;;;;;201.57;69.50;;;8.90;99.90;;;;;;5091736;28;20079;-69
2024/03/05 01:51:34;;;;;;;204.25;69.53;;;9.00;99.90;;;;;;5091508;28;20058;-68
2024/03/05 01:54:01;;;;;;;217.35;70.30;;;8.90;99.90;;;;;;5091953;28;20040;-68
2024/03/05 01:56:27;;;;;;;220.63;70.85;;;8.80;99.90;;;;;;5091783;28;20071;-68
2024/03/05 01:58:54;;;;;;;229.48;72.50;;;8.80;99.90;;;;;;5091459;28;20067;-69
2024/03/05 02:01:21;;;;;;;206.65;69.05;;;8.90;99.90;;;;;;5090847;28;20119;-69
2024/03/05 02:03:47;;;;;;;221.73;69.45;;;8.90;99.90;;;;;;5090377;28;20036;-69
2024/03/05 02:06:14;;;;;;;207.98;69.15;;;8.90;99.90;;;;;;5090313;28;20046;-69
2024/03/05 02:08:40;;;;;;;198.05;65.40;;;8.80;99.90;;;;;;5091485;28;20036;-68
2024/03/05 02:11:08;;;;;;;205.02;67.72;;;8.80;99.90;;;;;;5090949;28;20039;-69
2024/03/05 02:13:34;;;;;;;191.00;62.65;;;8.70;99.90;;;;;;5091812;28;20040;-68
2024/03/05 02:16:00;;;;;;;203.32;65.68;;;8.80;99.90;;;;;;5090288;28;20040;-69
2024/03/05 02:18:26;;;;;;;188.40;65.45;;;8.90;99.90;;;;;;5091405;28;20032;-69
2024/03/05 02:20:52;;;;;;;189.50;61.70;;;8.80;99.90;;;;;;5090933;28;20123;-69
2024/03/05 02:23:17;;;;;;;189.68;63.03;;;8.80;99.90;;;;;;5091449;28;20036;-68
2024/03/05 02:25:43;;;;;;;214.10;67.65;;;8.70;99.90;;;;;;5091419;28;20040;-69
2024/03/05 02:28:10;;;;;;;215.45;69.53;;;8.70;99.90;;;;;;5091456;28;20036;-69
2024/03/05 02:30:35;;;;;;;184.23;60.60;;;8.80;99.90;;;;;;5091267;28;20048;-69
2024/03/05 02:33:01;;;;;;;197.20;59.30;;;8.90;99.90;;;;;;5090942;28;20040;-69
2024/03/05 02:35:27;;;;;;;175.48;62.95;;;8.70;99.90;;;;;;5091350;28;20046;-69
2024/03/05 02:37:53;;;;;;;156.73;57.60;;;9.00;99.90;;;;;;5091370;28;20388;-69
2024/03/05 02:40:18;;;;;;;156.52;59.75;;;8.80;99.90;;;;;;5090990;28;20039;-69
2024/03/05 02:42:44;;;;;;;169.10;61.13;;;8.80;99.90;;;;;;5091010;28;20071;-69
2024/03/05 02:45:13;;;;;;;168.98;58.28;;;9.00;99.90;;;;;;5091461;28;20542;-69
2024/03/05 02:47:41;;;;;;;140.52;55.75;;;8.90;99.90;;;;;;5091437;28;20044;-68
2024/03/05 02:50:10;;;;;;;160.10;55.65;;;8.90;99.90;;;;;;5090840;28;20047;-69
2024/03/05 02:52:39;;;;;;;150.68;53.50;;;9.00;99.90;;;;;;5090822;28;20062;-68
2024/03/05 02:55:09;;;;;;;168.70;56.88;;;8.90;99.90;;;;;;5091091;28;20471;-68
2024/03/05 02:57:42;;;;;;;157.95;54.53;;;8.90;99.90;;;;;;5091352;28;20121;-69
2024/03/05 03:00:08;;;;;;;153.18;57.42;;;8.80;99.90;;;;;;5091062;28;20044;-69
2024/03/05 03:02:35;;;;;;;177.02;60.97;;;8.90;99.90;;;;;;5090609;28;20376;-69
2024/03/05 03:05:00;;;;;;;149.80;55.33;;;8.80;99.90;;;;;;5091001;28;20036;-69
2024/03/05 03:07:26;;;;;;;144.95;58.80;;;8.80;99.90;;;;;;5090787;28;20036;-69
2024/03/05 03:09:52;;;;;;;161.23;58.30;;;8.90;99.90;;;;;;5089459;28;20036;-68
2024/03/05 03:12:17;;;;;;;147.82;51.33;;;8.90;99.90;;;;;;5088668;28;20024;-69
2024/03/05 03:14:44;;;;;;;148.07;54.17;;;8.70;99.90;;;;;;5084862;28;20040;-69
2024/03/05 03:17:10;;;;;;;147.60;52.80;;;8.90;99.90;;;;;;5086827;28;20063;-69
2024/03/05 03:19:36;;;;;;;149.73;51.30;;;8.90;99.90;;;;;;5092554;28;20036;-69
2024/03/05 03:22:02;;;;;;;148.32;52.30;;;8.70;99.90;;;;;;5084352;28;20052;-69
2024/03/05 03:24:28;;;;;;;138.85;51.28;;;8.80;99.90;;;;;;5093642;28;20051;-69
2024/03/05 03:26:54;;;;;;;152.68;54.13;;;8.80;99.90;;;;;;5093512;28;20116;-69
2024/03/05 03:29:20;;;;;;;146.25;51.97;;;8.70;99.90;;;;;;5094404;28;20089;-69
2024/03/05 03:31:46;;;;;;;145.35;55.10;;;8.80;99.90;;;;;;5092732;28;20040;-68
2024/03/05 03:34:17;;;;;;;146.43;52.30;;;8.80;99.90;;;;;;5093223;28;20036;-68
2024/03/05 03:36:43;;;;;;;148.27;54.13;;;8.80;99.90;;;;;;5087960;28;20055;-69
2024/03/05 03:39:11;;;;;;;138.23;51.97;;;8.80;99.90;;;;;;5088900;28;20465;-69
2024/03/05 03:41:40;;;;;;;151.70;54.22;;;8.70;99.90;;;;;;5094062;28;20036;-69
2024/03/05 03:44:07;;;;;;;136.90;50.90;;;8.90;99.90;;;;;;5094365;28;20040;-69
2024/03/05 03:46:36;;;;;;;145.75;50.47;;;8.80;99.90;;;;;;5092974;28;20076;-69
2024/03/05 03:49:04;;;;;;;143.63;54.28;;;8.80;99.90;;;;;;5093751;28;20496;-69
2024/03/05 03:51:30;;;;;;;153.05;55.60;;;8.80;99.90;;;;;;5092735;28;20047;-68
2024/03/05 03:53:56;;;;;;;144.18;53.60;;;8.80;99.90;;;;;;5094237;28;20488;-70
2024/03/05 03:56:22;;;;;;;134.55;51.22;;;8.70;99.90;;;;;;5093030;28;20050;-69
2024/03/05 03:58:47;;;;;;;161.73;53.88;;;8.80;99.90;;;;;;5076152;28;20040;-69
2024/03/05 04:01:13;;;;;;;139.38;54.60;;;8.80;99.90;;;;;;5092414;28;20093;-68
2024/03/05 04:03:39;;;;;;;139.75;51.50;;;8.70;99.90;;;;;;5093653;28;20119;-68
2024/03/05 04:06:05;;;;;;;152.95;53.22;;;8.80;99.90;;;;;;5092817;28;20403;-69
2024/03/05 04:08:31;;;;;;;152.02;54.28;;;8.80;99.90;;;;;;5093654;28;20392;-69
2024/03/05 04:10:57;;;;;;;147.82;52.65;;;8.70;99.90;;;;;;5093350;28;20078;-69
2024/03/05 04:13:23;;;;;;;143.02;52.35;;;8.80;99.90;;;;;;5093790;28;20032;-69
2024/03/05 04:15:50;;;;;;;146.35;55.33;;;8.80;99.90;;;;;;5093649;28;20032;-69
2024/03/05 04:18:16;;;;;;;135.38;50.00;;;8.80;99.90;;;;;;5092753;28;20095;-69
2024/03/05 04:20:41;;;;;;;144.80;52.38;;;8.80;99.90;;;;;;5093574;28;20075;-69
2024/03/05 04:23:09;;;;;;;148.15;52.17;;;8.80;99.90;;;;;;5092934;28;20491;-69
2024/03/05 04:25:39;;;;;;;137.98;52.97;;;8.80;99.90;;;;;;5093510;28;20040;-68
2024/03/05 04:28:10;;;;;;;133.50;50.78;;;8.80;99.90;;;;;;5093408;28;20032;-69
2024/03/05 04:30:41;;;;;;;149.10;55.30;;;8.80;99.90;;;;;;5093088;28;20052;-69
2024/03/05 04:33:09;;;;;;;131.98;54.63;;;8.80;99.90;;;;;;5092704;28;20050;-69
2024/03/05 04:35:36;;;;;;;136.48;50.72;;;8.90;99.90;;;;;;5093257;28;20046;-68
2024/03/05 04:38:05;;;;;;;141.73;53.00;;;8.80;99.90;;;;;;5087794;28;20037;-69
2024/03/05 04:40:32;;;;;;;137.63;51.38;;;8.80;99.90;;;;;;5090120;28;20393;-69
2024/03/05 04:42:58;;;;;;;149.07;54.03;;;8.80;99.90;;;;;;5092501;28;20436;-68
2024/03/05 04:45:25;;;;;;;147.85;56.65;;;8.90;99.90;;;;;;5092847;28;20043;-68
2024/03/05 04:47:50;;;;;;;136.50;52.53;;;8.90;99.90;;;;;;5091636;28;20067;-68
2024/03/05 04:50:17;;;;;;;152.43;57.50;;;8.80;99.90;;;;;;5091164;28;20508;-68
2024/03/05 04:52:46;;;;;;;150.82;56.55;;;8.80;99.90;;;;;;5092490;28;20040;-69
2024/03/05 04:55:15;;;;;;;133.23;51.60;;;9.00;99.90;;;;;;5091480;28;20149;-68
2024/03/05 04:57:40;;;;;;;153.98;54.50;;;8.90;99.90;;;;;;5092750;28;20079;-68
2024/03/05 05:00:23;;;;;;;136.68;53.10;;;8.90;99.90;;;;;;5092280;28;20125;-69
2024/03/05 05:02:50;;;;;;;143.63;54.58;;;8.90;99.90;;;;;;5092325;28;20043;-69
2024/03/05 05:05:17;;;;;;;148.60;56.30;;;8.90;99.90;;;;;;5092711;28;20036;-68
2024/03/05 05:07:44;;;;;;;160.63;54.60;;;9.00;99.90;;;;;;5091320;28;20044;-68
2024/03/05 05:10:10;;;;;;;148.57;57.03;;;9.00;99.90;;;;;;5092222;28;20044;-68
2024/03/05 05:12:39;;;;;;;130.45;51.83;;;8.80;99.90;;;;;;5078337;28;20094;-68
2024/03/05 05:15:05;;;;;;;134.20;51.30;;;8.90;99.90;;;;;;5072276;28;20040;-69
2024/03/05 05:17:31;;;;;;;129.02;51.45;;;9.00;99.90;;;;;;5072275;28;20419;-68
2024/03/05 05:19:57;;;;;;;134.02;51.00;;;8.90;99.90;;;;;;5071888;28;20040;-69
2024/03/05 05:22:22;;;;;;;137.70;52.50;;;8.90;99.90;;;;;;5071634;28;20043;-69
2024/03/05 05:24:49;;;;;;;155.30;56.88;;;8.80;99.90;;;;;;5070678;28;20453;-68
2024/03/05 05:27:15;;;;;;;148.85;54.65;;;8.80;99.90;;;;;;5071914;28;20496;-69
2024/03/05 05:29:41;;;;;;;144.65;52.67;;;8.90;99.90;;;;;;5071873;28;20039;-68
2024/03/05 05:32:07;;;;;;;153.32;58.38;;;8.90;99.90;;;;;;5085766;28;20028;-69
2024/03/05 05:34:33;;;;;;;148.57;56.50;;;8.80;99.90;;;;;;5092285;28;20048;-69
2024/03/05 05:36:59;;;;;;;150.05;54.92;;;8.90;99.90;;;;;;5091580;28;20036;-68
2024/03/05 05:39:25;;;;;;;141.00;53.67;;;8.90;99.90;;;;;;5091736;28;20097;-68
2024/03/05 05:41:52;;;;;;;132.98;53.13;;;8.80;99.90;;;;;;5091501;28;20123;-69
2024/03/05 05:44:18;;;;;;;133.65;50.25;;;8.80;99.90;;;;;;5091949;28;20491;-69
2024/03/05 05:46:45;;;;;;;142.68;51.00;;;8.90;99.90;;;;;;5090829;28;20036;-69
2024/03/05 05:49:19;;;;;;;140.05;54.22;;;8.90;99.90;;;;;;5091625;28;20063;-68
2024/03/05 05:51:46;;;;;;;144.15;56.38;;;8.90;99.90;;;;;;5091505;28;20035;-69
2024/03/05 05:54:12;;;;;;;137.52;52.97;;;8.80;99.90;;;;;;5091742;28;20119;-69
2024/03/05 05:56:38;;;;;;;135.20;52.00;;;8.80;99.90;;;;;;5091839;28;20122;-68
2024/03/05 05:59:05;;;;;;;120.80;49.78;;;8.70;99.90;;;;;;5091849;28;20028;-68
2024/03/05 06:01:33;;;;;;;128.93;50.55;;;8.80;99.90;;;;;;5091360;28;20074;-69
2024/03/05 06:03:59;;;;;;;114.05;51.58;;;8.80;99.90;;;;;;5091742;28;20539;-69
2024/03/05 06:06:25;;;;;;;91.55;48.70;;;8.60;99.90;;;;;;5091645;28;20149;-68
2024/03/05 06:08:51;;;;;;;79.88;44.40;;;8.60;99.90;;;;;;5091370;28;20123;-68
2024/03/05 06:11:17;;;;;;;78.65;44.55;;;8.50;99.90;;;;;;5091281;28;20111;-68
2024/03/05 06:13:43;;;;;;;83.30;44.92;;;8.50;99.90;;;;;;5091747;28;20040;-69
2024/03/05 06:16:09;;;;;;;90.68;46.10;;;8.40;99.90;;;;;;5091571;28;20175;-68
2024/03/05 06:18:36;;;;;;;76.20;44.70;;;8.30;99.90;;;;;;5091417;28;20072;-68
2024/03/05 06:21:04;;;;;;;87.95;47.75;;;8.40;99.90;;;;;;5090973;28;20115;-68
2024/03/05 06:23:30;;;;;;;85.78;45.42;;;8.30;99.90;;;;;;5091394;28;20539;-68
2024/03/05 06:25:55;;;;;;;86.85;46.10;;;8.40;99.90;;;;;;5091497;28;20032;-69
2024/03/05 06:28:21;;;;;;;81.18;44.88;;;8.30;99.90;;;;;;5091238;28;20039;-68
2024/03/05 06:30:49;;;;;;;84.00;43.75;;;8.30;99.90;;;;;;5091373;28;20040;-69
2024/03/05 06:33:17;;;;;;;80.97;44.22;;;8.30;99.90;;;;;;5091249;28;20048;-69
2024/03/05 06:35:43;;;;;;;87.03;46.83;;;8.20;99.90;;;;;;5091258;28;20097;-69
2024/03/05 06:38:09;;;;;;;89.13;45.92;;;8.00;99.90;;;;;;5091528;28;20047;-68
2024/03/05 06:40:37;;;;;;;84.32;43.55;;;8.20;99.90;;;;;;5091120;28;20047;-69
2024/03/05 06:43:05;;;;;;;89.13;45.97;;;8.10;99.90;;;;;;5090912;28;20477;-68
2024/03/05 06:45:33;;;;;;;78.50;44.20;;;8.00;99.90;;;;;;5091200;28;20047;-69
2024/03/05 06:48:07;;;;;;;79.32;43.50;;;7.90;99.90;;;;;;5092440;28;20403;-68
2024/03/05 06:50:34;;;;;;;86.32;45.50;;;8.00;99.90;;;;;;5094562;28;20115;-69
2024/03/05 06:58:30;;;;;;;74.40;42.15;;;7.70;99.90;;;;;;5094604;28;20410;-68
2024/03/05 07:00:56;;;;;;;74.00;40.20;;;7.70;99.90;;;;;;5094275;28;20058;-69
2024/03/05 07:03:22;;;;;;;76.40;42.00;;;7.60;99.90;;;;;;5094983;28;20036;-69
2024/03/05 07:05:48;;;;;;;76.95;40.47;;;7.60;99.90;;;;;;5095003;28;20103;-68
2024/03/05 07:08:14;;;;;;;79.32;39.05;;;7.70;99.90;;;;;;5095024;28;20453;-69
2024/03/05 07:10:41;;;;;;;75.13;39.75;;;7.60;99.90;;;;;;5094720;28;20097;-69
2024/03/05 07:13:09;;;;;;;74.43;42.35;;;7.70;99.90;;;;;;5094294;28;20075;-69
2024/03/05 07:15:35;;;;;;;75.13;40.40;;;7.50;99.90;;;;;;5094927;28;20084;-69
2024/03/05 07:18:02;;;;;;;84.10;42.33;;;7.50;99.90;;;;;;5094872;28;20044;-68
2024/03/05 07:20:27;;;;;;;82.78;42.10;;;7.70;99.90;;;;;;5094190;28;20445;-69
2024/03/05 07:22:54;;;;;;;76.80;41.28;;;7.60;99.90;;;;;;5094027;28;20032;-69
2024/03/05 07:25:22;;;;;;;76.63;41.13;;;7.50;99.90;;;;;;5094408;28;20086;-69
2024/03/05 07:27:49;;;;;;;72.55;41.13;;;7.60;99.90;;;;;;5094352;28;20459;-69
2024/03/05 07:30:16;;;;;;;77.90;39.72;;;7.50;99.90;;;;;;5094278;28;20522;-68
2024/03/05 07:32:46;;;;;;;75.95;41.00;;;7.60;99.90;;;;;;5094029;28;20043;-69
2024/03/05 07:35:13;;;;;;;86.43;43.38;;;7.40;99.90;;;;;;5094473;28;20521;-68
2024/03/05 07:37:42;;;;;;;85.97;42.45;;;7.40;99.90;;;;;;5094362;28;20032;-69
2024/03/05 07:40:26;;;;;;;80.00;42.10;;;7.40;99.90;;;;;;5093997;28;20040;-69
2024/03/05 07:42:55;;;;;;;83.53;38.53;;;7.40;99.90;;;;;;5093633;28;20490;-69
2024/03/05 07:45:22;;;;;;;71.72;38.47;;;7.40;99.90;;;;;;5092945;28;20036;-69
2024/03/05 07:47:49;;;;;;;63.10;34.75;;;7.30;99.90;;;;;;5094248;28;20058;-68
2024/03/05 07:50:15;;;;;;;67.22;36.50;;;7.40;99.90;;;;;;5092607;28;20032;-69
2024/03/05 07:52:47;;;;;;;67.03;35.03;;;7.40;99.90;;;;;;5093559;28;20036;-69
2024/03/05 07:55:15;;;;;;;72.55;36.42;;;7.30;99.90;;;;;;5092528;28;20039;-69
2024/03/05 07:57:42;;;;;;;70.35;34.42;;;7.40;99.90;;;;;;5075977;28;20044;-69
2024/03/05 08:00:13;;;;;;;66.53;33.80;;;7.30;99.90;;;;;;5091679;28;20036;-69
2024/03/05 08:02:47;;;;;;;75.63;36.65;;;7.40;99.90;;;;;;5093433;28;20048;-69
2024/03/05 08:05:21;;;;;;;69.65;34.88;;;7.40;99.90;;;;;;5093736;28;20067;-70
2024/03/05 08:07:48;;;;;;;69.97;35.28;;;7.40;99.90;;;;;;5093484;28;20501;-69
2024/03/05 08:10:16;;;;;;;74.45;35.20;;;7.20;99.90;;;;;;5093262;28;20495;-70
2024/03/05 08:12:43;;;;;;;75.60;36.35;;;7.30;99.90;;;;;;5092016;28;20082;-69
2024/03/05 08:15:12;;;;;;;76.22;35.97;;;7.50;99.90;;;;;;5093615;28;20406;-69
2024/03/05 08:17:40;;;;;;;85.53;38.40;;;7.20;99.90;;;;;;5093558;28;20478;-69
2024/03/05 08:20:07;;;;;;;92.55;36.55;;;7.40;99.90;;;;;;5093020;28;20055;-69
2024/03/05 08:22:34;;;;;;;82.63;37.67;;;7.40;99.90;;;;;;5093109;28;20044;-69
2024/03/05 08:25:09;;;;;;;82.50;35.90;;;7.20;99.90;;;;;;5093430;28;20043;-69
2024/03/05 08:27:35;;;;;;;89.03;38.85;;;7.20;99.90;;;;;;5093393;28;20043;-69
2024/03/05 08:30:01;;;;;;;83.75;36.75;;;7.20;99.90;;;;;;5092964;28;20040;-69
2024/03/05 08:32:26;;;;;;;84.45;40.10;;;7.20;99.90;;;;;;5092581;28;20119;-69
2024/03/05 08:34:52;;;;;;;87.78;40.53;;;7.30;99.90;;;;;;5093011;28;20115;-69
2024/03/05 08:37:18;;;;;;;95.82;38.28;;;7.20;99.90;;;;;;5093299;28;20058;-69
2024/03/05 08:39:44;;;;;;;86.72;37.60;;;7.30;99.90;;;;;;5092868;28;20547;-69
2024/03/05 08:42:10;;;;;;;83.40;37.42;;;7.20;99.90;;;;;;5092088;28;20495;-69
2024/03/05 08:44:35;;;;;;;94.30;37.83;;;7.30;99.90;;;;;;5092914;28;20039;-69
2024/03/05 08:47:01;;;;;;;79.85;36.40;;;7.30;99.90;;;;;;5092229;28;20028;-69
2024/03/05 08:49:27;;;;;;;95.93;39.47;;;7.30;99.90;;;;;;5092102;28;20454;-69
2024/03/05 08:51:54;;;;;;;71.72;35.72;;;7.20;99.90;;;;;;5090658;28;20115;-69
2024/03/05 08:54:20;;;;;;;91.75;40.20;;;7.30;99.90;;;;;;5092684;28;20043;-69
2024/03/05 08:56:47;;;;;;;95.07;38.80;;;7.10;99.90;;;;;;5092714;28;20036;-69
2024/03/05 08:59:13;;;;;;;84.97;36.17;;;7.20;99.90;;;;;;5092395;28;20123;-68
2024/03/05 09:01:38;;;;;;;88.72;37.47;;;7.20;99.90;;;;;;5092191;28;20048;-69
2024/03/05 09:04:06;;;;;;;98.20;37.53;;;7.30;99.90;;;;;;5091222;28;20051;-69
2024/03/05 09:06:33;;;;;;;97.65;37.10;;;7.20;99.90;;;;;;5092542;28;20119;-69
2024/03/05 09:08:59;;;;;;;97.75;37.22;;;7.10;99.90;;;;;;5092363;28;20043;-68
2024/03/05 09:11:24;;;;;;;87.85;40.03;;;7.10;99.90;;;;;;5091124;28;20032;-69
2024/03/05 09:13:50;;;;;;;101.80;38.92;;;7.20;99.90;;;;;;5092054;28;20675;-69
2024/03/05 09:16:17;;;;;;;95.20;35.08;;;7.20;99.90;;;;;;5091799;28;20028;-69
2024/03/05 09:18:43;;;;;;;92.35;38.65;;;7.30;99.90;;;;;;5090575;28;20066;-69
2024/03/05 09:21:11;;;;;;;96.05;37.30;;;7.20;99.90;;;;;;5091218;28;20040;-69
2024/03/05 09:23:41;;;;;;;94.38;36.42;;;7.10;99.90;;;;;;5091882;28;20036;-69
2024/03/05 09:26:07;;;;;;;88.75;38.05;;;7.30;99.90;;;;;;5105378;28;20555;-68
2024/03/05 09:28:36;;;;;;;81.95;36.58;;;7.10;99.90;;;;;;5091481;28;20499;-69
2024/03/05 09:31:03;;;;;;;92.10;36.85;;;7.30;99.90;;;;;;5090887;28;20040;-69
2024/03/05 09:33:29;;;;;;;93.85;36.45;;;7.20;99.90;;;;;;5091764;28;20040;-68
2024/03/05 09:35:55;;;;;;;83.43;37.25;;;7.10;99.90;;;;;;5091652;28;20036;-69
2024/03/05 09:38:21;;;;;;;90.55;39.33;;;7.30;99.90;;;;;;5091295;28;20028;-69
2024/03/05 09:40:47;;;;;;;82.82;34.60;;;7.20;99.90;;;;;;5091427;28;20549;-69
2024/03/05 09:43:13;;;;;;;88.40;37.42;;;7.20;99.90;;;;;;5090864;28;20083;-68
2024/03/05 09:45:41;;;;;;;85.25;36.20;;;7.40;99.90;;;;;;5091505;28;20043;-69
2024/03/05 09:48:10;;;;;;;80.30;34.33;;;7.30;99.90;;;;;;5091512;28;20028;-69
2024/03/05 09:50:38;;;;;;;80.95;36.30;;;7.20;99.90;;;;;;5072850;28;20048;-69
2024/03/05 09:53:03;;;;;;;81.90;35.75;;;7.30;99.90;;;;;;5088212;28;20057;-69
2024/03/05 09:55:29;;;;;;;70.95;33.25;;;7.40;99.90;;;;;;5090831;28;20040;-70
2024/03/05 09:57:55;;;;;;;81.00;36.35;;;7.30;99.90;;;;;;5089925;28;20032;-71
2024/03/05 10:00:22;;;;;;;76.50;32.72;;;7.30;99.90;;;;;;5091572;28;20043;-71
2024/03/05 10:02:50;;;;;;;71.80;33.33;;;7.20;99.90;;;;;;5091345;28;20044;-70
2024/03/05 10:05:19;;;;;;;73.88;33.60;;;7.20;99.90;;;;;;5090255;28;20416;-71
2024/03/05 10:07:47;;;;;;;75.13;33.95;;;7.20;99.90;;;;;;5090431;28;20036;-70
2024/03/05 10:10:17;;;;;;;73.85;32.30;;;7.20;99.90;;;;;;5091374;28;20127;-70
2024/03/05 10:12:42;;;;;;;65.53;31.98;;;7.30;99.90;;;;;;5091087;28;20450;-71
2024/03/05 10:15:20;;;;;;;66.18;31.15;;;7.20;99.90;;;;;;5091758;28;20035;-70
2024/03/05 10:17:49;;;;;;;59.20;29.63;;;7.30;99.90;;;;;;5091599;28;20441;-70
2024/03/05 10:20:28;;;;;;;57.30;28.67;;;7.20;99.90;;;;;;5073129;28;20475;-71
2024/03/05 10:22:57;;;;;;;55.17;26.95;;;7.10;99.90;;;;;;5094032;28;20040;-72
2024/03/05 10:25:24;;;;;;;54.90;29.65;;;7.10;99.90;;;;;;5094832;28;20039;-72
2024/03/05 10:27:51;;;;;;;59.38;29.95;;;7.20;99.90;;;;;;5093867;28;20036;-72
2024/03/05 10:30:24;;;;;;;59.90;29.65;;;7.30;99.90;;;;;;5095174;28;20120;-72
2024/03/05 10:32:59;;;;;;;56.20;29.73;;;7.30;99.90;;;;;;5094745;28;20380;-72
2024/03/05 10:35:25;;;;;;;55.83;29.63;;;7.30;99.90;;;;;;5092846;28;20039;-72
2024/03/05 10:38:07;;;;;;;55.38;28.85;;;7.30;99.90;;;;;;5095039;28;20075;-72
2024/03/05 10:40:34;;;;;;;57.72;31.45;;;7.30;99.90;;;;;;5094429;28;20044;-72
2024/03/05 10:43:02;;;;;;;55.28;30.27;;;7.30;99.90;;;;;;5093471;28;20115;-72
2024/03/05 10:45:28;;;;;;;60.63;29.55;;;7.30;99.90;;;;;;5095244;28;20032;-72
2024/03/05 10:47:57;;;;;;;61.30;30.00;;;7.40;99.90;;;;;;5095011;28;20028;-72
2024/03/05 10:50:27;;;;;;;60.15;30.15;;;7.40;99.90;;;;;;5091770;28;20040;-72
2024/03/05 10:52:57;;;;;;;58.95;30.73;;;7.40;99.90;;;;;;5094359;28;20040;-72
2024/03/05 10:55:24;;;;;;;58.50;30.20;;;7.50;99.90;;;;;;5092043;28;20520;-72
2024/03/05 11:00:39;;;;;;;58.45;31.70;;;7.60;99.90;;;;;;5093181;28;20051;-72
2024/03/05 11:03:09;;;;;;;59.25;29.10;;;7.60;99.90;;;;;;5091710;28;20032;-72
2024/03/05 11:05:44;;;;;;;64.13;32.65;;;7.50;99.90;;;;;;5094370;28;20036;-72
2024/03/05 11:08:12;;;;;;;61.58;30.98;;;7.50;99.90;;;;;;5092895;28;20109;-72
2024/03/05 11:10:40;;;;;;;61.28;32.85;;;7.60;99.90;;;;;;5094495;28;20036;-72
2024/03/05 11:13:06;;;;;;;59.70;30.92;;;7.60;99.90;;;;;;5092353;28;20047;-72
2024/03/05 11:15:32;;;;;;;51.97;30.45;;;7.60;99.90;;;;;;5094080;28;20048;-72
2024/03/05 11:18:00;;;;;;;56.10;28.95;;;7.70;99.90;;;;;;5094326;28;20028;-72
2024/03/05 11:20:45;;;;;;;55.88;28.25;;;7.80;99.90;;;;;;5090807;28;20032;-72
2024/03/05 11:23:14;;;;;;;49.35;28.60;;;7.70;99.90;;;;;;5091323;28;20462;-72
2024/03/05 11:25:46;;;;;;;51.40;29.10;;;7.60;99.90;;;;;;5091548;28;20039;-72
2024/03/05 11:28:15;;;;;;;48.90;27.15;;;7.70;99.90;;;;;;5093569;28;20032;-72
2024/03/05 11:30:43;;;;;;;55.85;29.17;;;7.80;99.90;;;;;;5093035;28;20024;-72
2024/03/05 11:33:18;;;;;;;53.35;27.85;;;7.70;99.90;;;;;;5091422;28;20606;-72
2024/03/05 11:35:46;;;;;;;44.20;24.73;;;7.60;99.90;;;;;;5092949;28;20072;-72
2024/03/05 11:38:18;;;;;;;44.13;24.80;;;7.60;99.90;;;;;;5092859;28;20032;-72
2024/03/05 11:40:47;;;;;;;49.38;26.02;;;7.60;99.90;;;;;;5092461;28;20093;-72
2024/03/05 11:43:36;;;;;;;44.42;25.42;;;7.60;99.90;;;;;;5091598;28;20449;-73
2024/03/05 11:46:01;;;;;;;46.88;25.75;;;7.50;99.90;;;;;;5090989;28;20040;-73
2024/03/05 11:48:28;;;;;;;40.10;25.48;;;7.50;99.90;;;;;;5092705;28;20038;-72
2024/03/05 11:50:54;;;;;;;46.63;25.83;;;7.50;99.90;;;;;;5092475;28;20063;-73
2024/03/05 11:53:20;;;;;;;43.08;26.65;;;7.50;99.90;;;;;;5092091;28;20040;-72
2024/03/05 11:55:50;;;;;;;38.63;23.48;;;7.60;99.90;;;;;;5092130;28;20043;-71
2024/03/05 11:58:23;;;;;;;42.67;24.10;;;7.40;99.90;;;;;;5091803;28;20043;-72
2024/03/05 12:00:49;;;;;;;41.30;25.58;;;7.50;99.90;;;;;;5093374;28;20036;-72
2024/03/05 12:03:19;;;;;;;40.90;24.42;;;7.50;99.90;;;;;;5093005;28;20051;-72
2024/03/05 12:05:45;;;;;;;39.83;23.90;;;7.60;99.90;;;;;;5092349;28;20036;-72
2024/03/05 12:08:11;;;;;;;41.65;22.85;;;7.50;99.90;;;;;;5093214;28;20575;-72
2024/03/05 12:10:39;;;;;;;42.70;22.73;;;7.60;99.90;;;;;;5092867;28;20028;-72
2024/03/05 12:13:05;;;;;;;36.50;22.83;;;7.50;99.90;;;;;;5092743;28;20043;-72
2024/03/05 12:15:34;;;;;;;42.17;23.67;;;7.50;99.90;;;;;;5092934;28;20518;-72
2024/03/05 12:18:10;;;;;;;38.10;23.05;;;7.60;99.90;;;;;;5090765;28;20484;-72
2024/03/05 12:20:37;;;;;;;37.25;22.98;;;7.60;99.90;;;;;;5092594;28;20043;-72
2024/03/05 12:23:03;;;;;;;36.17;21.33;;;7.40;99.90;;;;;;5091210;28;20162;-72
2024/03/05 12:25:29;;;;;;;38.30;23.33;;;7.60;99.90;;;;;;5092865;28;20044;-72
2024/03/05 12:27:55;;;;;;;35.05;21.60;;;7.50;99.90;;;;;;5092725;28;20032;-72
2024/03/05 12:30:21;;;;;;;40.97;22.38;;;7.60;99.90;;;;;;5087626;28;20391;-73
2024/03/05 12:32:54;;;;;;;30.55;20.00;;;7.60;99.90;;;;;;5081953;28;20036;-73
2024/03/05 12:35:22;;;;;;;34.70;20.27;;;7.50;99.90;;;;;;5080207;28;20078;-73
2024/03/05 12:37:50;;;;;;;39.00;21.15;;;7.60;99.90;;;;;;5092844;28;20422;-73
2024/03/05 12:40:21;;;;;;;35.65;20.52;;;7.60;99.90;;;;;;5092399;28;20036;-73
2024/03/05 12:42:50;;;;;;;36.17;21.38;;;7.50;99.90;;;;;;5092570;28;20047;-76